createdAt,value
2018-07-31T00:00:20.729Z,99.90
2018-07-31T00:02:48.070Z,99.90
2018-07-31T00:05:15.545Z,99.90
2018-07-31T00:07:42.890Z,99.90
2018-07-31T00:10:10.269Z,99.90
2018-07-31T00:12:37.626Z,99.90
2018-07-31T00:15:07.644Z,99.90
2018-07-31T00:17:35.009Z,99.90
2018-07-31T00:20:02.401Z,99.90
2018-07-31T00:22:29.826Z,99.90
2018-07-31T00:24:57.181Z,99.90
2018-07-31T00:27:24.541Z,99.90
2018-07-31T00:29:51.885Z,99.90
2018-07-31T00:32:19.222Z,99.90
2018-07-31T00:34:46.574Z,99.90
2018-07-31T00:37:13.909Z,99.90
2018-07-31T00:39:41.233Z,99.90
2018-07-31T00:42:08.578Z,99.90
2018-07-31T00:44:35.924Z,99.90
2018-07-31T00:47:03.295Z,99.90
2018-07-31T00:49:30.637Z,99.90
2018-07-31T00:51:57.985Z,99.90
2018-07-31T00:54:25.318Z,99.90
2018-07-31T00:56:52.660Z,99.90
2018-07-31T00:59:20.006Z,99.90
2018-07-31T01:01:47.354Z,99.90
2018-07-31T01:04:14.697Z,99.90
2018-07-31T01:06:43.210Z,99.90
2018-07-31T01:09:11.861Z,99.90
2018-07-31T01:11:39.553Z,99.90
2018-07-31T01:14:07.927Z,99.90
2018-07-31T01:16:35.805Z,99.90
2018-07-31T01:19:03.406Z,99.90
2018-07-31T01:21:30.782Z,99.90
2018-07-31T01:23:58.121Z,99.90
2018-07-31T01:26:25.481Z,99.90
2018-07-31T01:28:52.840Z,99.90
2018-07-31T01:31:20.417Z,99.90
2018-07-31T01:33:47.776Z,99.90
2018-07-31T01:36:15.169Z,99.90
2018-07-31T01:38:42.512Z,99.90
2018-07-31T01:41:09.849Z,99.90
2018-07-31T01:43:37.245Z,99.90
2018-07-31T01:46:04.628Z,99.90
2018-07-31T01:48:31.973Z,99.90
2018-07-31T01:50:59.321Z,99.90
2018-07-31T01:55:53.977Z,99.90
2018-07-31T01:58:21.341Z,99.90
2018-07-31T02:00:48.673Z,99.90
2018-07-31T02:03:16.049Z,99.90
2018-07-31T02:05:43.493Z,99.90
2018-07-31T02:08:10.849Z,99.90
2018-07-31T02:10:38.605Z,99.90
2018-07-31T02:13:06.082Z,99.90
2018-07-31T02:15:33.421Z,99.90
2018-07-31T02:18:00.762Z,99.90
2018-07-31T02:20:28.113Z,99.90
2018-07-31T02:22:55.477Z,99.90
2018-07-31T02:25:22.850Z,99.90
2018-07-31T02:27:50.203Z,99.90
2018-07-31T02:30:21.313Z,99.90
2018-07-31T02:32:49.429Z,99.90
2018-07-31T02:35:16.802Z,99.90
2018-07-31T02:37:44.337Z,99.90
2018-07-31T02:40:11.754Z,99.90
2018-07-31T02:42:39.105Z,99.90
2018-07-31T02:45:08.510Z,99.90
2018-07-31T02:47:35.933Z,99.90
2018-07-31T02:50:03.761Z,99.90
2018-07-31T02:52:31.094Z,99.90
2018-07-31T02:54:58.449Z,99.90
2018-07-31T02:57:25.809Z,99.90
2018-07-31T02:59:53.142Z,99.90
2018-07-31T03:02:20.499Z,99.90
2018-07-31T03:04:47.857Z,99.90
2018-07-31T03:07:15.193Z,99.90
2018-07-31T03:09:42.549Z,99.90
2018-07-31T03:12:09.893Z,99.90
2018-07-31T03:14:37.227Z,99.90
2018-07-31T03:17:04.605Z,99.90
2018-07-31T03:19:31.945Z,99.90
2018-07-31T03:21:59.310Z,99.90
2018-07-31T03:24:26.662Z,99.90
2018-07-31T03:26:54.056Z,99.90
2018-07-31T03:29:23.853Z,99.90
2018-07-31T03:31:51.261Z,99.90
2018-07-31T03:34:18.633Z,99.90
2018-07-31T03:36:45.977Z,99.90
2018-07-31T03:39:13.366Z,99.90
2018-07-31T03:41:40.721Z,99.90
2018-07-31T03:44:08.125Z,99.90
2018-07-31T03:46:35.487Z,99.90
2018-07-31T03:49:02.877Z,99.90
2018-07-31T03:51:30.232Z,99.90
2018-07-31T03:53:57.606Z,99.90
2018-07-31T03:56:24.971Z,99.90
2018-07-31T03:58:52.283Z,99.90
2018-07-31T04:01:19.621Z,99.90
2018-07-31T04:03:46.973Z,99.90
2018-07-31T04:06:14.305Z,99.90
2018-07-31T04:08:41.694Z,99.90
2018-07-31T04:11:09.085Z,99.90
2018-07-31T04:13:36.494Z,99.90
2018-07-31T04:16:03.876Z,99.90
2018-07-31T04:18:31.245Z,99.90
2018-07-31T04:20:58.585Z,99.90
2018-07-31T04:23:25.945Z,99.90
2018-07-31T04:25:53.292Z,99.90
2018-07-31T04:28:20.637Z,99.90
2018-07-31T04:30:47.977Z,99.90
2018-07-31T04:33:15.313Z,99.90
2018-07-31T04:35:42.664Z,99.90
2018-07-31T04:38:10.009Z,99.90
2018-07-31T04:40:37.385Z,99.90
2018-07-31T04:43:04.725Z,99.90
2018-07-31T04:45:32.077Z,99.90
2018-07-31T04:47:59.444Z,99.90
2018-07-31T04:50:26.866Z,99.90
2018-07-31T04:52:54.157Z,99.90
2018-07-31T04:55:21.533Z,99.90
2018-07-31T04:57:48.887Z,99.90
2018-07-31T05:00:16.334Z,99.90
2018-07-31T05:02:43.722Z,99.90
2018-07-31T05:05:11.099Z,99.90
2018-07-31T05:07:39.149Z,99.90
2018-07-31T05:10:09.178Z,99.90
2018-07-31T05:12:36.546Z,99.90
2018-07-31T05:15:04.540Z,99.90
2018-07-31T05:17:31.959Z,99.90
2018-07-31T05:22:26.639Z,99.90
2018-07-31T05:24:54.101Z,99.90
2018-07-31T05:27:21.437Z,99.90
2018-07-31T05:29:48.796Z,99.90
2018-07-31T05:32:16.141Z,99.90
2018-07-31T05:34:43.953Z,99.90
2018-07-31T05:37:11.323Z,99.90
2018-07-31T05:39:38.678Z,99.90
2018-07-31T05:42:06.025Z,99.90
2018-07-31T05:44:33.365Z,99.90
2018-07-31T05:47:00.744Z,99.90
2018-07-31T05:49:28.085Z,99.90
2018-07-31T05:51:55.463Z,99.90
2018-07-31T05:54:22.801Z,99.90
2018-07-31T05:56:50.148Z,99.90
2018-07-31T05:59:17.497Z,99.90
2018-07-31T06:01:44.869Z,99.90
2018-07-31T06:04:12.198Z,99.90
2018-07-31T06:06:39.557Z,99.90
2018-07-31T06:09:07.919Z,99.90
2018-07-31T06:11:35.488Z,99.90
2018-07-31T06:14:03.514Z,99.90
2018-07-31T06:16:30.876Z,99.90
2018-07-31T06:18:58.221Z,99.90
2018-07-31T06:21:25.569Z,99.90
2018-07-31T06:23:52.917Z,99.90
2018-07-31T06:26:20.262Z,99.90
2018-07-31T06:28:47.597Z,99.90
2018-07-31T06:31:14.957Z,99.90
2018-07-31T06:33:42.282Z,99.90
2018-07-31T06:36:09.725Z,99.90
2018-07-31T06:38:37.093Z,99.90
2018-07-31T06:41:04.468Z,99.90
2018-07-31T06:43:31.877Z,99.90
2018-07-31T06:45:59.326Z,99.90
2018-07-31T06:48:26.684Z,99.90
2018-07-31T06:50:54.074Z,99.90
2018-07-31T06:53:21.417Z,99.90
2018-07-31T06:55:48.762Z,99.90
2018-07-31T06:58:16.165Z,99.90
2018-07-31T07:00:43.754Z,99.90
2018-07-31T07:03:11.093Z,99.90
2018-07-31T07:05:38.474Z,99.90
2018-07-31T07:08:05.809Z,99.90
2018-07-31T07:10:33.169Z,99.90
2018-07-31T07:13:00.561Z,99.90
2018-07-31T07:15:27.928Z,99.90
2018-07-31T07:17:55.257Z,99.90
2018-07-31T07:20:22.661Z,99.90
2018-07-31T07:22:49.995Z,99.90
2018-07-31T07:25:17.349Z,99.90
2018-07-31T07:27:44.698Z,99.90
2018-07-31T07:30:12.037Z,99.90
2018-07-31T07:32:39.374Z,99.90
2018-07-31T07:35:06.749Z,99.90
2018-07-31T07:37:34.143Z,99.90
2018-07-31T07:40:01.534Z,99.90
2018-07-31T07:42:28.893Z,99.90
2018-07-31T07:44:56.245Z,99.90
2018-07-31T07:47:23.590Z,99.90
2018-07-31T07:49:50.997Z,99.90
2018-07-31T07:52:18.344Z,99.90
2018-07-31T07:54:45.665Z,99.90
2018-07-31T07:57:13.025Z,99.90
2018-07-31T07:59:40.377Z,99.90
2018-07-31T08:02:07.753Z,99.90
2018-07-31T08:04:35.127Z,99.90
2018-07-31T08:07:02.441Z,99.90
2018-07-31T08:09:29.793Z,99.90
2018-07-31T08:11:57.395Z,99.90
2018-07-31T08:14:24.730Z,99.90
2018-07-31T08:16:52.081Z,99.90
2018-07-31T08:19:19.449Z,99.90
2018-07-31T08:21:46.786Z,99.90
2018-07-31T08:24:14.133Z,99.90
2018-07-31T08:26:41.501Z,99.90
2018-07-31T08:29:08.833Z,99.90
2018-07-31T08:31:36.175Z,99.90
2018-07-31T08:34:03.557Z,99.90
2018-07-31T08:36:30.890Z,99.90
2018-07-31T08:38:58.717Z,99.90
2018-07-31T08:41:26.082Z,99.90
2018-07-31T08:43:53.409Z,99.90
2018-07-31T08:46:20.750Z,97.90
2018-07-31T08:48:48.109Z,95.40
2018-07-31T08:51:15.459Z,96.40
2018-07-31T08:53:42.806Z,90.00
2018-07-31T08:56:10.181Z,86.20
2018-07-31T08:58:37.541Z,60.70
2018-07-31T09:01:04.877Z,52.30
2018-07-31T09:03:32.225Z,44.90
2018-07-31T09:05:59.569Z,44.20
2018-07-31T09:08:26.999Z,43.00
2018-07-31T09:10:54.504Z,45.00
2018-07-31T09:13:21.858Z,41.00
2018-07-31T09:15:49.209Z,45.70
2018-07-31T09:18:16.603Z,47.50
2018-07-31T09:20:43.941Z,46.90
2018-07-31T09:23:11.290Z,45.30
2018-07-31T09:25:47.585Z,47.30
2018-07-31T09:28:16.618Z,43.10
2018-07-31T09:30:49.683Z,42.30
2018-07-31T09:33:17.037Z,45.90
2018-07-31T09:35:44.429Z,42.20
2018-07-31T09:38:11.876Z,50.50
2018-07-31T09:40:39.137Z,46.50
2018-07-31T09:43:06.486Z,48.40
2018-07-31T09:45:33.873Z,49.30
2018-07-31T09:48:01.253Z,51.10
2018-07-31T09:50:29.065Z,56.90
2018-07-31T09:52:56.413Z,56.60
2018-07-31T09:55:23.753Z,50.80
2018-07-31T09:57:51.353Z,55.80
2018-07-31T10:00:24.541Z,54.60
2018-07-31T10:02:52.736Z,56.30
2018-07-31T10:05:20.106Z,52.50
2018-07-31T10:07:47.436Z,54.30
2018-07-31T10:10:14.781Z,58.60
2018-07-31T10:12:42.125Z,62.10
2018-07-31T10:15:09.998Z,56.30
2018-07-31T10:17:37.377Z,54.30
2018-07-31T10:20:04.709Z,51.60
2018-07-31T10:22:32.059Z,54.20
2018-07-31T10:24:59.409Z,57.80
2018-07-31T10:27:26.757Z,61.70
2018-07-31T10:29:54.125Z,58.40
2018-07-31T10:32:21.489Z,54.00
2018-07-31T10:34:48.854Z,57.80
2018-07-31T10:37:16.209Z,59.00
2018-07-31T10:39:43.589Z,52.00
2018-07-31T10:42:10.933Z,57.10
2018-07-31T10:44:38.297Z,49.90
2018-07-31T10:47:05.645Z,54.70
2018-07-31T10:49:32.981Z,56.00
2018-07-31T10:52:00.492Z,49.70
2018-07-31T10:54:27.853Z,56.30
2018-07-31T10:56:55.241Z,56.50
2018-07-31T10:59:22.594Z,53.20
2018-07-31T11:01:49.941Z,59.90
2018-07-31T11:04:17.283Z,54.10
2018-07-31T11:09:11.997Z,51.30
2018-07-31T11:11:39.928Z,50.00
2018-07-31T11:14:07.926Z,48.60
2018-07-31T11:16:35.326Z,48.30
2018-07-31T11:19:02.709Z,51.80
2018-07-31T11:21:30.145Z,47.60
2018-07-31T11:23:57.493Z,46.60
2018-07-31T11:26:24.837Z,46.50
2018-07-31T11:28:52.273Z,46.80
2018-07-31T11:31:19.617Z,50.90
2018-07-31T11:33:46.966Z,46.70
2018-07-31T11:36:14.401Z,44.40
2018-07-31T11:38:41.760Z,47.40
2018-07-31T11:41:09.194Z,45.90
2018-07-31T11:43:36.550Z,49.70
2018-07-31T11:46:03.929Z,51.40
2018-07-31T11:48:31.345Z,47.00
2018-07-31T11:50:58.689Z,45.00
2018-07-31T11:53:26.056Z,44.50
2018-07-31T11:55:53.421Z,49.00
2018-07-31T11:58:20.769Z,45.80
2018-07-31T12:00:48.093Z,47.40
2018-07-31T12:03:15.453Z,50.20
2018-07-31T12:05:42.809Z,47.00
2018-07-31T12:08:10.149Z,51.40
2018-07-31T12:10:37.513Z,54.40
2018-07-31T12:13:04.881Z,48.80
2018-07-31T12:15:32.218Z,47.40
2018-07-31T12:17:59.580Z,51.70
2018-07-31T12:20:26.945Z,50.30
2018-07-31T12:22:54.285Z,50.90
2018-07-31T12:25:21.636Z,48.10
2018-07-31T12:27:49.014Z,46.10
2018-07-31T12:30:16.357Z,50.90
2018-07-31T12:32:43.773Z,50.50
2018-07-31T12:35:11.335Z,51.50
2018-07-31T12:37:38.693Z,51.80
2018-07-31T12:40:06.361Z,54.10
2018-07-31T12:42:33.717Z,52.50
2018-07-31T12:45:01.077Z,54.20
2018-07-31T12:47:28.425Z,54.90
2018-07-31T12:49:56.145Z,51.00
2018-07-31T12:52:23.493Z,54.60
2018-07-31T12:54:50.857Z,49.10
2018-07-31T12:57:18.229Z,46.20
2018-07-31T12:59:45.573Z,41.50
2018-07-31T13:02:12.946Z,40.10
2018-07-31T13:04:40.304Z,36.20
2018-07-31T13:07:07.675Z,40.10
2018-07-31T13:09:35.053Z,42.80
2018-07-31T13:12:03.065Z,36.10
2018-07-31T13:14:30.396Z,34.00
2018-07-31T13:16:57.741Z,33.50
2018-07-31T13:19:25.101Z,33.10
2018-07-31T13:21:52.461Z,31.80
2018-07-31T13:26:47.133Z,36.90
2018-07-31T13:29:14.486Z,40.90
2018-07-31T13:31:41.836Z,38.70
2018-07-31T13:34:09.209Z,32.90
2018-07-31T13:36:36.553Z,30.90
2018-07-31T13:39:07.315Z,36.40
2018-07-31T13:41:34.738Z,33.70
2018-07-31T13:44:02.338Z,30.10
2018-07-31T13:46:29.537Z,33.60
2018-07-31T13:48:56.885Z,30.20
2018-07-31T13:51:24.226Z,34.10
2018-07-31T13:53:51.674Z,34.00
2018-07-31T13:56:19.008Z,32.60
2018-07-31T13:58:46.357Z,32.30
2018-07-31T14:01:13.714Z,28.30
2018-07-31T14:03:41.061Z,27.50
2018-07-31T14:06:08.408Z,30.50
2018-07-31T14:08:35.757Z,32.80
2018-07-31T14:11:03.121Z,28.10
2018-07-31T14:13:30.457Z,35.30
2018-07-31T14:15:57.834Z,36.90
2018-07-31T14:18:25.221Z,30.30
2018-07-31T14:20:52.585Z,35.30
2018-07-31T14:23:20.058Z,29.60
2018-07-31T14:25:47.461Z,30.10
2018-07-31T14:28:14.817Z,28.20
2018-07-31T14:30:42.165Z,34.40
2018-07-31T14:33:09.546Z,27.10
2018-07-31T14:35:36.893Z,27.20
2018-07-31T14:38:04.241Z,30.00
2018-07-31T14:40:31.601Z,30.40
2018-07-31T14:42:59.003Z,30.20
2018-07-31T14:45:26.325Z,26.10
2018-07-31T14:47:53.685Z,28.10
2018-07-31T14:50:21.029Z,27.10
2018-07-31T14:52:48.405Z,27.00
2018-07-31T14:55:15.769Z,26.80
2018-07-31T14:57:43.145Z,28.70
2018-07-31T15:02:37.837Z,30.10
2018-07-31T15:05:05.505Z,31.60
2018-07-31T15:07:32.854Z,30.00
2018-07-31T15:10:00.225Z,29.70
2018-07-31T15:12:27.574Z,31.10
2018-07-31T15:14:54.929Z,30.00
2018-07-31T15:19:49.597Z,35.40
2018-07-31T15:22:16.994Z,34.50
2018-07-31T15:24:44.357Z,36.20
2018-07-31T15:27:11.691Z,36.30
2018-07-31T15:29:39.065Z,35.30
2018-07-31T15:32:06.405Z,34.00
2018-07-31T15:34:33.757Z,36.80
2018-07-31T15:37:01.129Z,40.40
2018-07-31T15:41:55.781Z,42.40
2018-07-31T15:44:23.125Z,36.20
2018-07-31T15:49:17.818Z,38.30
2018-07-31T15:51:45.213Z,40.80
2018-07-31T15:54:12.613Z,38.20
2018-07-31T15:56:40.001Z,43.20
2018-07-31T15:59:07.389Z,44.00
2018-07-31T16:01:34.762Z,39.50
2018-07-31T16:04:02.122Z,39.30
2018-07-31T16:06:29.622Z,38.70
2018-07-31T16:08:57.031Z,38.40
2018-07-31T16:11:24.401Z,41.60
2018-07-31T16:13:51.753Z,37.70
2018-07-31T16:16:19.114Z,37.60
2018-07-31T16:18:46.462Z,43.60
2018-07-31T16:21:13.831Z,37.60
2018-07-31T16:23:41.217Z,37.30
2018-07-31T16:26:08.606Z,42.20
2018-07-31T16:28:35.995Z,37.40
2018-07-31T16:31:03.397Z,37.10
2018-07-31T16:33:30.750Z,37.70
2018-07-31T16:35:58.113Z,42.10
2018-07-31T16:38:25.489Z,41.70
2018-07-31T16:40:52.830Z,40.50
2018-07-31T16:43:20.348Z,44.60
2018-07-31T16:45:47.709Z,41.10
2018-07-31T16:48:15.041Z,39.90
2018-07-31T16:50:42.434Z,39.90
2018-07-31T16:53:09.810Z,40.60
2018-07-31T16:58:04.474Z,40.10
2018-07-31T17:00:31.866Z,40.80
2018-07-31T17:02:59.198Z,41.40
2018-07-31T17:05:26.549Z,40.10
2018-07-31T17:07:53.905Z,42.60
2018-07-31T17:10:21.281Z,46.80
2018-07-31T17:12:48.634Z,42.30
2018-07-31T17:15:16.001Z,43.00
2018-07-31T17:17:43.361Z,44.30
2018-07-31T17:20:14.305Z,42.00
2018-07-31T17:22:41.686Z,44.00
2018-07-31T17:25:09.082Z,43.30
2018-07-31T17:27:36.591Z,41.60
2018-07-31T17:30:04.529Z,42.30
2018-07-31T17:32:32.082Z,44.20
2018-07-31T17:34:59.811Z,44.30
2018-07-31T17:37:27.602Z,42.40
2018-07-31T17:39:55.611Z,42.20
2018-07-31T17:42:24.125Z,41.30
2018-07-31T17:44:51.982Z,42.60
2018-07-31T17:47:19.594Z,44.50
2018-07-31T17:49:47.102Z,40.60
2018-07-31T17:52:14.706Z,41.30
2018-07-31T17:54:42.278Z,40.60
2018-07-31T17:57:09.830Z,40.30
2018-07-31T17:59:37.464Z,41.60
2018-07-31T18:02:05.082Z,43.00
2018-07-31T18:04:32.869Z,47.40
2018-07-31T18:07:00.411Z,41.90
2018-07-31T18:09:27.998Z,45.80
2018-07-31T18:11:55.637Z,47.00
2018-07-31T18:14:23.362Z,45.50
2018-07-31T18:16:50.814Z,49.50
2018-07-31T18:19:18.700Z,42.20
2018-07-31T18:21:46.694Z,48.80
2018-07-31T18:24:14.541Z,51.00
2018-07-31T18:26:43.176Z,49.40
2018-07-31T18:29:10.957Z,50.30
2018-07-31T18:31:38.627Z,52.70
2018-07-31T18:34:06.198Z,52.80
2018-07-31T18:36:33.817Z,53.90
2018-07-31T18:39:01.671Z,53.70
2018-07-31T18:41:29.212Z,54.10
2018-07-31T18:43:56.746Z,54.00
2018-07-31T18:46:24.321Z,55.80
2018-07-31T18:48:51.958Z,55.80
2018-07-31T18:51:19.578Z,54.70
2018-07-31T18:53:47.142Z,55.30
2018-07-31T18:56:14.666Z,55.90
2018-07-31T18:58:42.206Z,58.00
2018-07-31T19:01:16.513Z,56.10
2018-07-31T19:03:44.018Z,58.00
2018-07-31T19:06:11.630Z,57.00
2018-07-31T19:08:39.191Z,57.80
2018-07-31T19:11:06.816Z,57.30
2018-07-31T19:13:34.338Z,56.90
2018-07-31T19:16:01.881Z,56.10
2018-07-31T19:18:29.457Z,55.80
2018-07-31T19:20:56.994Z,56.10
2018-07-31T19:23:24.554Z,56.40
2018-07-31T19:25:52.154Z,56.60
2018-07-31T19:28:19.763Z,56.90
2018-07-31T19:30:47.234Z,57.80
2018-07-31T19:33:14.929Z,58.10
2018-07-31T19:35:42.514Z,58.00
2018-07-31T19:38:10.090Z,59.50
2018-07-31T19:40:37.702Z,59.80
2018-07-31T19:43:05.315Z,59.80
2018-07-31T19:45:32.892Z,60.80
2018-07-31T19:48:02.823Z,63.20
2018-07-31T21:56:07.446Z,64.80
